This is the latest recevied weather packets stored in our database for station/object OK2JF-6. If no packets are shown the sender has not sent any weather packets the latest 10 day(s).
| Time | Temp. | Humidity | Pressure | Rain* | Wind** | Luminosity | Snow |
|---|---|---|---|---|---|---|---|
| 1777791723 | 19.44° C | 44% | 1090.8 hPa | 0 mm | - | 269 W/m² | - |
| 1777791363 | 18.89° C | 47% | 1090.6 hPa | 0 mm | - | 259 W/m² | - |
| 1777791063 | 17.78° C | 49% | 1090.9 hPa | 0 mm | - | 249 W/m² | - |
| 1777790943 | 17.22° C | 49% | 1090.9 hPa | 0 mm | - | 245 W/m² | - |
| 1777790823 | 17.22° C | 49% | 1090.9 hPa | 0 mm | - | 241 W/m² | - |
| 1777790763 | 17.22° C | 49% | 1090.9 hPa | 0 mm | - | 240 W/m² | - |
| 1777790403 | 16.67° C | 49% | 1090.8 hPa | 0 mm | - | 228 W/m² | - |
| 1777790118 | 16.11° C | 52% | 1090.7 hPa | 0 mm | - | 220 W/m² | - |
| 1777789383 | 14.44° C | 56% | 1090.8 hPa | 0 mm | - | 198 W/m² | - |
| 1777788439 | 13.33° C | 59% | 1090.2 hPa | 0 mm | - | 170 W/m² | - |
| 1777788063 | 12.78° C | 59% | 1090.2 hPa | 0 mm | - | 161 W/m² | - |
| 1777787943 | 12.22° C | 59% | 1090.2 hPa | 0 mm | - | 157 W/m² | - |
| 1777787583 | 12.22° C | 59% | 1090.3 hPa | 0 mm | - | 148 W/m² | - |
| 1777787463 | 12.22° C | 60% | 1090.4 hPa | 0 mm | - | 144 W/m² | - |
| 1777786563 | 11.67° C | 62% | 1090.1 hPa | 0 mm | - | 121 W/m² | - |
| 1777786383 | 11.67° C | 62% | 1090.3 hPa | 0 mm | - | 116 W/m² | - |
| 1777785663 | 11.11° C | 64% | 1090.1 hPa | 0 mm | - | 99 W/m² | - |
| 1777785483 | 11.11° C | 64% | 1090.2 hPa | 0 mm | - | 95 W/m² | - |
| 1777785078 | 10.56° C | 65% | 1089.9 hPa | 0 mm | - | 86 W/m² | - |
| 1777784824 | 10.56° C | 67% | 1090 hPa | 0 mm | - | 80 W/m² | - |
| 1777784763 | 10.56° C | 67% | 1090.1 hPa | 0 mm | - | 78 W/m² | - |
| 1777783983 | 10° C | 72% | 1089.9 hPa | 0 mm | - | 63 W/m² | - |
| 1777783503 | 8.89° C | 75% | 1090.2 hPa | 0 mm | - | 53 W/m² | - |
| 1777782379 | 4.44° C | 89% | 1089.8 hPa | 0 mm | - | 34 W/m² | - |
| 1777782363 | 4.44° C | 89% | 1089.8 hPa | 0 mm | - | 33 W/m² | - |
* Rain latest hour (hover to see other rain measurements)
** Current wind speed in m/s (hover to see current wind gust speed)